sensor_id;sensor_type;location;lat;lon;timestamp;P1;durP1;ratioP1;P2;durP2;ratioP2
68449;SDS011;67758;39.572;2.652;2023-05-07T00:02:03;7.23;;;1.80;;
68449;SDS011;67758;39.572;2.652;2023-05-07T00:04:29;8.95;;;1.55;;
68449;SDS011;67758;39.572;2.652;2023-05-07T00:07:01;6.72;;;1.58;;
68449;SDS011;67758;39.572;2.652;2023-05-07T00:09:26;9.00;;;1.83;;
68449;SDS011;67758;39.572;2.652;2023-05-07T00:11:52;7.10;;;1.90;;
68449;SDS011;67758;39.572;2.652;2023-05-07T00:14:18;5.37;;;1.60;;
68449;SDS011;67758;39.572;2.652;2023-05-07T00:16:43;7.22;;;1.40;;
68449;SDS011;67758;39.572;2.652;2023-05-07T00:19:09;7.10;;;1.43;;
68449;SDS011;67758;39.572;2.652;2023-05-07T00:21:35;5.07;;;1.50;;
68449;SDS011;67758;39.572;2.652;2023-05-07T00:24:00;6.00;;;1.50;;
68449;SDS011;67758;39.572;2.652;2023-05-07T00:26:26;4.80;;;1.60;;
68449;SDS011;67758;39.572;2.652;2023-05-07T00:28:52;6.77;;;1.40;;
68449;SDS011;67758;39.572;2.652;2023-05-07T00:31:17;4.50;;;1.23;;
68449;SDS011;67758;39.572;2.652;2023-05-07T00:33:43;5.88;;;1.90;;
68449;SDS011;67758;39.572;2.652;2023-05-07T00:36:08;6.70;;;2.17;;
68449;SDS011;67758;39.572;2.652;2023-05-07T00:38:34;5.40;;;1.42;;
68449;SDS011;67758;39.572;2.652;2023-05-07T00:41:00;4.40;;;1.40;;
68449;SDS011;67758;39.572;2.652;2023-05-07T00:43:27;6.13;;;1.73;;
68449;SDS011;67758;39.572;2.652;2023-05-07T00:45:53;5.85;;;1.45;;
68449;SDS011;67758;39.572;2.652;2023-05-07T00:48:19;5.30;;;1.17;;
68449;SDS011;67758;39.572;2.652;2023-05-07T00:50:45;5.47;;;1.50;;
68449;SDS011;67758;39.572;2.652;2023-05-07T00:53:12;4.63;;;1.33;;
68449;SDS011;67758;39.572;2.652;2023-05-07T00:55:40;5.60;;;1.40;;
68449;SDS011;67758;39.572;2.652;2023-05-07T00:58:06;4.20;;;1.10;;
68449;SDS011;67758;39.572;2.652;2023-05-07T01:00:32;4.78;;;1.20;;
68449;SDS011;67758;39.572;2.652;2023-05-07T01:02:57;4.60;;;1.50;;
68449;SDS011;67758;39.572;2.652;2023-05-07T01:05:23;4.75;;;1.33;;
68449;SDS011;67758;39.572;2.652;2023-05-07T01:07:50;4.72;;;1.60;;
68449;SDS011;67758;39.572;2.652;2023-05-07T01:10:19;9.07;;;1.70;;
68449;SDS011;67758;39.572;2.652;2023-05-07T01:12:45;6.40;;;1.40;;
68449;SDS011;67758;39.572;2.652;2023-05-07T01:15:12;4.60;;;1.40;;
68449;SDS011;67758;39.572;2.652;2023-05-07T01:17:39;4.18;;;1.27;;
68449;SDS011;67758;39.572;2.652;2023-05-07T01:20:06;5.13;;;1.45;;
68449;SDS011;67758;39.572;2.652;2023-05-07T01:22:37;6.20;;;1.30;;
68449;SDS011;67758;39.572;2.652;2023-05-07T01:25:03;7.28;;;1.58;;
68449;SDS011;67758;39.572;2.652;2023-05-07T01:27:30;6.35;;;1.40;;
68449;SDS011;67758;39.572;2.652;2023-05-07T01:29:58;4.82;;;1.60;;
68449;SDS011;67758;39.572;2.652;2023-05-07T01:32:29;5.18;;;1.48;;
68449;SDS011;67758;39.572;2.652;2023-05-07T01:35:06;5.10;;;1.60;;
68449;SDS011;67758;39.572;2.652;2023-05-07T01:37:35;6.05;;;1.33;;
68449;SDS011;67758;39.572;2.652;2023-05-07T01:40:01;5.68;;;1.50;;
68449;SDS011;67758;39.572;2.652;2023-05-07T01:42:28;5.72;;;1.60;;
68449;SDS011;67758;39.572;2.652;2023-05-07T01:44:54;5.40;;;1.50;;
68449;SDS011;67758;39.572;2.652;2023-05-07T01:47:20;4.27;;;1.20;;
68449;SDS011;67758;39.572;2.652;2023-05-07T01:49:47;5.07;;;1.25;;
68449;SDS011;67758;39.572;2.652;2023-05-07T01:52:13;4.93;;;1.33;;
68449;SDS011;67758;39.572;2.652;2023-05-07T01:54:38;6.13;;;1.60;;
68449;SDS011;67758;39.572;2.652;2023-05-07T01:57:04;5.33;;;1.30;;
68449;SDS011;67758;39.572;2.652;2023-05-07T01:59:30;7.35;;;1.48;;
68449;SDS011;67758;39.572;2.652;2023-05-07T02:01:55;5.57;;;1.90;;
68449;SDS011;67758;39.572;2.652;2023-05-07T02:04:21;6.70;;;1.50;;
68449;SDS011;67758;39.572;2.652;2023-05-07T02:06:47;8.30;;;1.33;;
68449;SDS011;67758;39.572;2.652;2023-05-07T02:09:13;7.55;;;1.95;;
68449;SDS011;67758;39.572;2.652;2023-05-07T02:11:39;5.80;;;1.45;;
68449;SDS011;67758;39.572;2.652;2023-05-07T02:14:05;5.20;;;1.17;;
68449;SDS011;67758;39.572;2.652;2023-05-07T02:16:31;5.67;;;1.47;;
68449;SDS011;67758;39.572;2.652;2023-05-07T02:18:57;7.07;;;1.60;;
68449;SDS011;67758;39.572;2.652;2023-05-07T02:21:23;5.22;;;1.40;;
68449;SDS011;67758;39.572;2.652;2023-05-07T02:23:50;6.03;;;1.77;;
68449;SDS011;67758;39.572;2.652;2023-05-07T02:26:15;8.97;;;1.50;;
68449;SDS011;67758;39.572;2.652;2023-05-07T02:28:41;8.17;;;1.30;;
68449;SDS011;67758;39.572;2.652;2023-05-07T02:31:07;6.10;;;1.45;;
68449;SDS011;67758;39.572;2.652;2023-05-07T02:33:32;5.97;;;1.27;;
68449;SDS011;67758;39.572;2.652;2023-05-07T02:36:09;7.53;;;1.70;;
68449;SDS011;67758;39.572;2.652;2023-05-07T02:38:35;7.68;;;1.50;;
68449;SDS011;67758;39.572;2.652;2023-05-07T02:41:01;4.63;;;1.40;;
68449;SDS011;67758;39.572;2.652;2023-05-07T02:43:27;7.00;;;1.40;;
68449;SDS011;67758;39.572;2.652;2023-05-07T02:46:03;5.25;;;1.45;;
68449;SDS011;67758;39.572;2.652;2023-05-07T02:48:29;5.72;;;1.33;;
68449;SDS011;67758;39.572;2.652;2023-05-07T02:50:55;5.60;;;1.50;;
68449;SDS011;67758;39.572;2.652;2023-05-07T02:53:20;6.07;;;1.73;;
68449;SDS011;67758;39.572;2.652;2023-05-07T02:55:46;6.38;;;1.60;;
68449;SDS011;67758;39.572;2.652;2023-05-07T02:58:12;5.37;;;1.50;;
68449;SDS011;67758;39.572;2.652;2023-05-07T03:00:37;7.33;;;1.77;;
68449;SDS011;67758;39.572;2.652;2023-05-07T03:03:03;4.37;;;1.10;;
68449;SDS011;67758;39.572;2.652;2023-05-07T03:05:28;5.43;;;1.33;;
68449;SDS011;67758;39.572;2.652;2023-05-07T03:07:54;5.00;;;1.60;;
68449;SDS011;67758;39.572;2.652;2023-05-07T03:10:19;5.90;;;1.43;;
68449;SDS011;67758;39.572;2.652;2023-05-07T03:12:45;6.97;;;1.90;;
68449;SDS011;67758;39.572;2.652;2023-05-07T03:15:11;6.40;;;2.08;;
68449;SDS011;67758;39.572;2.652;2023-05-07T03:17:37;6.53;;;1.58;;
68449;SDS011;67758;39.572;2.652;2023-05-07T03:20:04;6.68;;;1.85;;
68449;SDS011;67758;39.572;2.652;2023-05-07T03:22:30;7.40;;;1.43;;
68449;SDS011;67758;39.572;2.652;2023-05-07T03:24:55;6.15;;;1.60;;
68449;SDS011;67758;39.572;2.652;2023-05-07T03:27:21;6.93;;;1.43;;
68449;SDS011;67758;39.572;2.652;2023-05-07T03:29:47;5.50;;;1.40;;
68449;SDS011;67758;39.572;2.652;2023-05-07T03:32:13;7.80;;;1.67;;
68449;SDS011;67758;39.572;2.652;2023-05-07T03:34:38;6.45;;;1.40;;
68449;SDS011;67758;39.572;2.652;2023-05-07T03:37:04;5.43;;;1.53;;
68449;SDS011;67758;39.572;2.652;2023-05-07T03:39:29;6.90;;;1.73;;
68449;SDS011;67758;39.572;2.652;2023-05-07T03:41:55;5.83;;;1.60;;
68449;SDS011;67758;39.572;2.652;2023-05-07T03:44:23;8.32;;;1.92;;
68449;SDS011;67758;39.572;2.652;2023-05-07T03:46:48;5.28;;;1.63;;
68449;SDS011;67758;39.572;2.652;2023-05-07T03:49:14;5.60;;;1.90;;
68449;SDS011;67758;39.572;2.652;2023-05-07T03:51:39;5.40;;;1.50;;
68449;SDS011;67758;39.572;2.652;2023-05-07T03:54:05;5.93;;;1.67;;
68449;SDS011;67758;39.572;2.652;2023-05-07T03:56:32;6.28;;;1.90;;
68449;SDS011;67758;39.572;2.652;2023-05-07T03:58:57;9.20;;;2.03;;
68449;SDS011;67758;39.572;2.652;2023-05-07T04:01:23;5.30;;;1.70;;
68449;SDS011;67758;39.572;2.652;2023-05-07T04:03:49;6.68;;;1.52;;
68449;SDS011;67758;39.572;2.652;2023-05-07T04:06:17;7.60;;;2.00;;
68449;SDS011;67758;39.572;2.652;2023-05-07T04:08:43;5.43;;;1.70;;
68449;SDS011;67758;39.572;2.652;2023-05-07T04:11:10;6.13;;;1.77;;
68449;SDS011;67758;39.572;2.652;2023-05-07T04:13:35;6.70;;;1.67;;
68449;SDS011;67758;39.572;2.652;2023-05-07T04:16:02;7.57;;;2.00;;
68449;SDS011;67758;39.572;2.652;2023-05-07T04:18:29;6.13;;;1.60;;
68449;SDS011;67758;39.572;2.652;2023-05-07T04:20:54;5.53;;;1.90;;
68449;SDS011;67758;39.572;2.652;2023-05-07T04:23:20;7.10;;;1.73;;
68449;SDS011;67758;39.572;2.652;2023-05-07T04:25:46;6.15;;;1.80;;
68449;SDS011;67758;39.572;2.652;2023-05-07T04:28:12;7.80;;;2.00;;
68449;SDS011;67758;39.572;2.652;2023-05-07T04:30:37;5.07;;;1.70;;
68449;SDS011;67758;39.572;2.652;2023-05-07T04:33:04;6.10;;;1.77;;
68449;SDS011;67758;39.572;2.652;2023-05-07T04:35:29;8.43;;;2.10;;
68449;SDS011;67758;39.572;2.652;2023-05-07T04:37:56;8.68;;;1.88;;
68449;SDS011;67758;39.572;2.652;2023-05-07T04:40:21;7.20;;;1.73;;
68449;SDS011;67758;39.572;2.652;2023-05-07T04:42:47;6.13;;;1.93;;
68449;SDS011;67758;39.572;2.652;2023-05-07T04:45:12;6.63;;;1.80;;
68449;SDS011;67758;39.572;2.652;2023-05-07T04:47:38;6.53;;;1.98;;
68449;SDS011;67758;39.572;2.652;2023-05-07T04:50:04;5.83;;;2.33;;
68449;SDS011;67758;39.572;2.652;2023-05-07T04:52:31;7.72;;;1.70;;
68449;SDS011;67758;39.572;2.652;2023-05-07T04:54:58;6.23;;;1.90;;
68449;SDS011;67758;39.572;2.652;2023-05-07T04:57:25;7.57;;;1.70;;
68449;SDS011;67758;39.572;2.652;2023-05-07T04:59:51;6.07;;;2.00;;
68449;SDS011;67758;39.572;2.652;2023-05-07T05:02:17;8.35;;;1.90;;
68449;SDS011;67758;39.572;2.652;2023-05-07T05:04:43;7.80;;;1.67;;
68449;SDS011;67758;39.572;2.652;2023-05-07T05:07:08;6.60;;;2.10;;
68449;SDS011;67758;39.572;2.652;2023-05-07T05:09:34;8.97;;;1.70;;
68449;SDS011;67758;39.572;2.652;2023-05-07T05:11:59;7.87;;;2.00;;
68449;SDS011;67758;39.572;2.652;2023-05-07T05:14:25;8.02;;;2.03;;
68449;SDS011;67758;39.572;2.652;2023-05-07T05:16:51;7.20;;;1.90;;
68449;SDS011;67758;39.572;2.652;2023-05-07T05:19:17;7.70;;;2.63;;
68449;SDS011;67758;39.572;2.652;2023-05-07T05:21:42;7.23;;;2.63;;
68449;SDS011;67758;39.572;2.652;2023-05-07T05:24:08;6.00;;;2.10;;
68449;SDS011;67758;39.572;2.652;2023-05-07T05:26:34;7.23;;;2.23;;
68449;SDS011;67758;39.572;2.652;2023-05-07T05:28:59;6.68;;;1.58;;
68449;SDS011;67758;39.572;2.652;2023-05-07T05:31:25;8.55;;;2.10;;
68449;SDS011;67758;39.572;2.652;2023-05-07T05:33:51;8.43;;;2.00;;
68449;SDS011;67758;39.572;2.652;2023-05-07T05:36:17;6.20;;;1.90;;
68449;SDS011;67758;39.572;2.652;2023-05-07T05:38:42;8.00;;;2.00;;
68449;SDS011;67758;39.572;2.652;2023-05-07T05:41:09;9.15;;;2.00;;
68449;SDS011;67758;39.572;2.652;2023-05-07T05:43:34;7.53;;;1.80;;
68449;SDS011;67758;39.572;2.652;2023-05-07T05:46:00;6.03;;;1.65;;
68449;SDS011;67758;39.572;2.652;2023-05-07T05:48:26;6.63;;;1.70;;
68449;SDS011;67758;39.572;2.652;2023-05-07T05:50:52;6.22;;;1.95;;
68449;SDS011;67758;39.572;2.652;2023-05-07T05:53:17;6.63;;;1.90;;
68449;SDS011;67758;39.572;2.652;2023-05-07T05:55:43;6.70;;;2.00;;
68449;SDS011;67758;39.572;2.652;2023-05-07T05:58:09;7.37;;;2.00;;
68449;SDS011;67758;39.572;2.652;2023-05-07T06:00:34;6.97;;;1.90;;
68449;SDS011;67758;39.572;2.652;2023-05-07T06:03:00;7.07;;;1.77;;
68449;SDS011;67758;39.572;2.652;2023-05-07T06:05:26;5.88;;;1.73;;
68449;SDS011;67758;39.572;2.652;2023-05-07T06:07:51;8.30;;;2.10;;
68449;SDS011;67758;39.572;2.652;2023-05-07T06:10:17;7.40;;;1.73;;
68449;SDS011;67758;39.572;2.652;2023-05-07T06:12:43;8.50;;;2.13;;
68449;SDS011;67758;39.572;2.652;2023-05-07T06:15:09;7.40;;;1.88;;
68449;SDS011;67758;39.572;2.652;2023-05-07T06:17:35;9.48;;;2.28;;
68449;SDS011;67758;39.572;2.652;2023-05-07T06:20:02;7.80;;;2.23;;
68449;SDS011;67758;39.572;2.652;2023-05-07T06:22:28;14.00;;;1.80;;
68449;SDS011;67758;39.572;2.652;2023-05-07T06:24:53;10.23;;;2.03;;
68449;SDS011;67758;39.572;2.652;2023-05-07T06:27:19;7.50;;;1.77;;
68449;SDS011;67758;39.572;2.652;2023-05-07T06:29:45;5.57;;;1.80;;
68449;SDS011;67758;39.572;2.652;2023-05-07T06:32:13;9.18;;;1.88;;
68449;SDS011;67758;39.572;2.652;2023-05-07T06:34:39;6.32;;;1.80;;
68449;SDS011;67758;39.572;2.652;2023-05-07T06:37:05;8.07;;;2.10;;
68449;SDS011;67758;39.572;2.652;2023-05-07T06:39:32;9.02;;;1.80;;
68449;SDS011;67758;39.572;2.652;2023-05-07T06:42:00;5.87;;;1.73;;
68449;SDS011;67758;39.572;2.652;2023-05-07T06:44:27;8.15;;;2.15;;
68449;SDS011;67758;39.572;2.652;2023-05-07T06:46:52;6.63;;;1.80;;
68449;SDS011;67758;39.572;2.652;2023-05-07T06:49:18;6.60;;;1.83;;
68449;SDS011;67758;39.572;2.652;2023-05-07T06:51:44;6.65;;;1.90;;
68449;SDS011;67758;39.572;2.652;2023-05-07T06:54:09;7.07;;;1.73;;
68449;SDS011;67758;39.572;2.652;2023-05-07T06:56:35;7.10;;;1.57;;
68449;SDS011;67758;39.572;2.652;2023-05-07T06:59:01;7.38;;;1.98;;
68449;SDS011;67758;39.572;2.652;2023-05-07T07:01:28;7.38;;;1.80;;
68449;SDS011;67758;39.572;2.652;2023-05-07T07:03:54;6.60;;;1.80;;
68449;SDS011;67758;39.572;2.652;2023-05-07T07:06:19;9.40;;;2.00;;
68449;SDS011;67758;39.572;2.652;2023-05-07T07:08:45;10.35;;;2.10;;
68449;SDS011;67758;39.572;2.652;2023-05-07T07:11:15;10.02;;;2.20;;
68449;SDS011;67758;39.572;2.652;2023-05-07T07:13:41;6.53;;;1.90;;
68449;SDS011;67758;39.572;2.652;2023-05-07T07:16:08;7.28;;;2.00;;
68449;SDS011;67758;39.572;2.652;2023-05-07T07:18:34;5.60;;;1.80;;
68449;SDS011;67758;39.572;2.652;2023-05-07T07:21:01;6.45;;;2.25;;
68449;SDS011;67758;39.572;2.652;2023-05-07T07:23:26;6.50;;;1.77;;
68449;SDS011;67758;39.572;2.652;2023-05-07T07:25:58;10.70;;;2.17;;
68449;SDS011;67758;39.572;2.652;2023-05-07T07:28:25;8.48;;;1.75;;
68449;SDS011;67758;39.572;2.652;2023-05-07T07:30:55;7.80;;;1.80;;
68449;SDS011;67758;39.572;2.652;2023-05-07T07:33:24;6.80;;;1.80;;
68449;SDS011;67758;39.572;2.652;2023-05-07T07:35:51;6.47;;;1.60;;
68449;SDS011;67758;39.572;2.652;2023-05-07T07:38:17;6.35;;;1.60;;
68449;SDS011;67758;39.572;2.652;2023-05-07T07:40:42;6.47;;;2.05;;
68449;SDS011;67758;39.572;2.652;2023-05-07T07:43:09;9.63;;;1.92;;
68449;SDS011;67758;39.572;2.652;2023-05-07T07:45:37;7.53;;;1.80;;
68449;SDS011;67758;39.572;2.652;2023-05-07T07:48:04;8.85;;;2.08;;
68449;SDS011;67758;39.572;2.652;2023-05-07T07:50:47;7.07;;;1.70;;
68449;SDS011;67758;39.572;2.652;2023-05-07T07:53:29;6.30;;;1.85;;
68449;SDS011;67758;39.572;2.652;2023-05-07T07:55:58;6.57;;;2.00;;
68449;SDS011;67758;39.572;2.652;2023-05-07T07:58:33;6.82;;;1.73;;
68449;SDS011;67758;39.572;2.652;2023-05-07T08:01:29;7.68;;;1.95;;
68449;SDS011;67758;39.572;2.652;2023-05-07T08:03:55;8.80;;;2.10;;
68449;SDS011;67758;39.572;2.652;2023-05-07T08:06:24;8.52;;;2.50;;
68449;SDS011;67758;39.572;2.652;2023-05-07T08:08:53;8.90;;;2.00;;
68449;SDS011;67758;39.572;2.652;2023-05-07T08:11:41;8.05;;;1.92;;
68449;SDS011;67758;39.572;2.652;2023-05-07T08:14:07;5.50;;;1.80;;
68449;SDS011;67758;39.572;2.652;2023-05-07T08:16:48;6.53;;;1.70;;
68449;SDS011;67758;39.572;2.652;2023-05-07T08:20:19;7.00;;;2.22;;
68449;SDS011;67758;39.572;2.652;2023-05-07T08:25:27;6.82;;;2.00;;
68449;SDS011;67758;39.572;2.652;2023-05-07T08:28:15;7.78;;;2.20;;
68449;SDS011;67758;39.572;2.652;2023-05-07T08:30:41;7.67;;;1.93;;
68449;SDS011;67758;39.572;2.652;2023-05-07T08:33:08;9.77;;;2.60;;
68449;SDS011;67758;39.572;2.652;2023-05-07T08:35:34;8.30;;;2.22;;
68449;SDS011;67758;39.572;2.652;2023-05-07T08:38:02;10.13;;;2.20;;
68449;SDS011;67758;39.572;2.652;2023-05-07T08:40:27;8.15;;;2.15;;
68449;SDS011;67758;39.572;2.652;2023-05-07T08:42:54;7.15;;;2.20;;
68449;SDS011;67758;39.572;2.652;2023-05-07T08:45:21;7.00;;;2.65;;
68449;SDS011;67758;39.572;2.652;2023-05-07T08:47:50;10.10;;;2.45;;
68449;SDS011;67758;39.572;2.652;2023-05-07T08:50:18;7.70;;;2.55;;
68449;SDS011;67758;39.572;2.652;2023-05-07T08:52:45;7.55;;;2.65;;
68449;SDS011;67758;39.572;2.652;2023-05-07T08:55:11;6.18;;;2.00;;
68449;SDS011;67758;39.572;2.652;2023-05-07T08:57:38;8.40;;;2.50;;
68449;SDS011;67758;39.572;2.652;2023-05-07T09:00:05;11.10;;;4.97;;
68449;SDS011;67758;39.572;2.652;2023-05-07T09:02:32;17.15;;;8.13;;
68449;SDS011;67758;39.572;2.652;2023-05-07T09:05:00;6.55;;;2.35;;
68449;SDS011;67758;39.572;2.652;2023-05-07T09:07:25;7.27;;;2.43;;
68449;SDS011;67758;39.572;2.652;2023-05-07T09:09:52;6.15;;;2.10;;
68449;SDS011;67758;39.572;2.652;2023-05-07T09:12:18;6.22;;;2.30;;
68449;SDS011;67758;39.572;2.652;2023-05-07T09:14:45;9.68;;;2.00;;
68449;SDS011;67758;39.572;2.652;2023-05-07T09:17:11;6.50;;;1.77;;
68449;SDS011;67758;39.572;2.652;2023-05-07T09:19:37;6.63;;;1.93;;
68449;SDS011;67758;39.572;2.652;2023-05-07T09:22:03;6.90;;;2.17;;
68449;SDS011;67758;39.572;2.652;2023-05-07T09:24:40;5.57;;;1.77;;
68449;SDS011;67758;39.572;2.652;2023-05-07T09:27:15;6.55;;;2.25;;
68449;SDS011;67758;39.572;2.652;2023-05-07T09:29:43;10.18;;;2.30;;
68449;SDS011;67758;39.572;2.652;2023-05-07T09:32:09;6.57;;;2.13;;
68449;SDS011;67758;39.572;2.652;2023-05-07T09:34:35;7.50;;;2.23;;
68449;SDS011;67758;39.572;2.652;2023-05-07T09:37:02;6.00;;;1.98;;
68449;SDS011;67758;39.572;2.652;2023-05-07T09:39:38;5.50;;;1.77;;
68449;SDS011;67758;39.572;2.652;2023-05-07T09:42:05;7.75;;;2.17;;
68449;SDS011;67758;39.572;2.652;2023-05-07T09:44:32;7.15;;;2.05;;
68449;SDS011;67758;39.572;2.652;2023-05-07T09:46:59;7.53;;;2.28;;
68449;SDS011;67758;39.572;2.652;2023-05-07T09:49:28;5.88;;;2.08;;
68449;SDS011;67758;39.572;2.652;2023-05-07T09:51:58;6.05;;;2.22;;
68449;SDS011;67758;39.572;2.652;2023-05-07T09:54:26;10.13;;;3.13;;
68449;SDS011;67758;39.572;2.652;2023-05-07T09:57:02;6.30;;;2.53;;
68449;SDS011;67758;39.572;2.652;2023-05-07T09:59:28;6.97;;;2.20;;
68449;SDS011;67758;39.572;2.652;2023-05-07T10:02:03;6.00;;;2.00;;
68449;SDS011;67758;39.572;2.652;2023-05-07T10:04:36;6.55;;;2.00;;
68449;SDS011;67758;39.572;2.652;2023-05-07T10:07:02;9.05;;;2.00;;
68449;SDS011;67758;39.572;2.652;2023-05-07T10:09:30;4.95;;;2.00;;
68449;SDS011;67758;39.572;2.652;2023-05-07T10:11:56;6.75;;;2.60;;
68449;SDS011;67758;39.572;2.652;2023-05-07T10:14:24;6.38;;;2.10;;
68449;SDS011;67758;39.572;2.652;2023-05-07T10:16:55;5.72;;;2.25;;
68449;SDS011;67758;39.572;2.652;2023-05-07T10:19:22;8.35;;;2.15;;
68449;SDS011;67758;39.572;2.652;2023-05-07T10:21:54;5.15;;;1.92;;
68449;SDS011;67758;39.572;2.652;2023-05-07T10:24:25;5.88;;;1.50;;
68449;SDS011;67758;39.572;2.652;2023-05-07T10:26:52;6.72;;;2.67;;
68449;SDS011;67758;39.572;2.652;2023-05-07T10:31:50;6.37;;;2.27;;
68449;SDS011;67758;39.572;2.652;2023-05-07T10:34:41;5.47;;;2.15;;
68449;SDS011;67758;39.572;2.652;2023-05-07T10:37:13;6.15;;;2.50;;
68449;SDS011;67758;39.572;2.652;2023-05-07T10:39:40;6.05;;;2.60;;
68449;SDS011;67758;39.572;2.652;2023-05-07T10:42:10;5.72;;;2.30;;
68449;SDS011;67758;39.572;2.652;2023-05-07T10:44:36;5.78;;;2.40;;
68449;SDS011;67758;39.572;2.652;2023-05-07T10:47:12;5.63;;;2.63;;
68449;SDS011;67758;39.572;2.652;2023-05-07T10:52:23;5.20;;;2.60;;
68449;SDS011;67758;39.572;2.652;2023-05-07T11:01:02;5.90;;;3.10;;
68449;SDS011;67758;39.572;2.652;2023-05-07T11:03:28;9.15;;;2.97;;
68449;SDS011;67758;39.572;2.652;2023-05-07T11:08:53;6.63;;;2.60;;
68449;SDS011;67758;39.572;2.652;2023-05-07T11:11:48;7.55;;;4.20;;
68449;SDS011;67758;39.572;2.652;2023-05-07T11:17:31;5.10;;;2.30;;
68449;SDS011;67758;39.572;2.652;2023-05-07T11:20:59;5.00;;;2.40;;
68449;SDS011;67758;39.572;2.652;2023-05-07T11:24:09;5.85;;;2.85;;
68449;SDS011;67758;39.572;2.652;2023-05-07T11:26:43;5.07;;;2.40;;
68449;SDS011;67758;39.572;2.652;2023-05-07T11:29:23;7.13;;;2.40;;
68449;SDS011;67758;39.572;2.652;2023-05-07T11:32:00;7.32;;;2.42;;
68449;SDS011;67758;39.572;2.652;2023-05-07T11:35:06;5.67;;;2.23;;
68449;SDS011;67758;39.572;2.652;2023-05-07T11:37:34;8.25;;;2.75;;
68449;SDS011;67758;39.572;2.652;2023-05-07T11:40:06;6.32;;;2.63;;
68449;SDS011;67758;39.572;2.652;2023-05-07T11:49:36;5.97;;;2.13;;
68449;SDS011;67758;39.572;2.652;2023-05-07T11:52:29;5.25;;;1.88;;
68449;SDS011;67758;39.572;2.652;2023-05-07T11:55:30;6.90;;;2.03;;
68449;SDS011;67758;39.572;2.652;2023-05-07T11:58:01;5.10;;;2.08;;
68449;SDS011;67758;39.572;2.652;2023-05-07T12:00:48;8.02;;;2.90;;
68449;SDS011;67758;39.572;2.652;2023-05-07T12:03:54;6.83;;;2.73;;
68449;SDS011;67758;39.572;2.652;2023-05-07T12:06:36;7.82;;;3.05;;
68449;SDS011;67758;39.572;2.652;2023-05-07T12:09:06;7.03;;;2.63;;
68449;SDS011;67758;39.572;2.652;2023-05-07T12:11:51;8.10;;;2.30;;
68449;SDS011;67758;39.572;2.652;2023-05-07T12:14:41;7.45;;;2.50;;
68449;SDS011;67758;39.572;2.652;2023-05-07T12:17:25;7.23;;;2.40;;
68449;SDS011;67758;39.572;2.652;2023-05-07T12:19:57;6.00;;;2.65;;
68449;SDS011;67758;39.572;2.652;2023-05-07T12:22:27;6.20;;;1.85;;
68449;SDS011;67758;39.572;2.652;2023-05-07T12:25:02;6.20;;;2.50;;
68449;SDS011;67758;39.572;2.652;2023-05-07T12:27:36;7.13;;;2.17;;
68449;SDS011;67758;39.572;2.652;2023-05-07T12:30:27;7.40;;;2.30;;
68449;SDS011;67758;39.572;2.652;2023-05-07T12:33:00;5.65;;;1.70;;
68449;SDS011;67758;39.572;2.652;2023-05-07T12:35:48;5.90;;;1.80;;
68449;SDS011;67758;39.572;2.652;2023-05-07T12:38:18;6.45;;;2.13;;
68449;SDS011;67758;39.572;2.652;2023-05-07T12:40:46;7.72;;;2.42;;
68449;SDS011;67758;39.572;2.652;2023-05-07T12:43:31;8.93;;;2.43;;
68449;SDS011;67758;39.572;2.652;2023-05-07T12:46:01;8.32;;;2.80;;
68449;SDS011;67758;39.572;2.652;2023-05-07T12:48:33;7.32;;;2.45;;
68449;SDS011;67758;39.572;2.652;2023-05-07T12:51:01;6.28;;;2.20;;
68449;SDS011;67758;39.572;2.652;2023-05-07T12:53:27;6.78;;;2.15;;
68449;SDS011;67758;39.572;2.652;2023-05-07T12:55:55;10.00;;;2.13;;
68449;SDS011;67758;39.572;2.652;2023-05-07T12:58:29;5.55;;;2.40;;
68449;SDS011;67758;39.572;2.652;2023-05-07T13:00:59;6.30;;;2.40;;
68449;SDS011;67758;39.572;2.652;2023-05-07T13:03:29;6.88;;;2.05;;
68449;SDS011;67758;39.572;2.652;2023-05-07T13:06:04;7.22;;;2.25;;
68449;SDS011;67758;39.572;2.652;2023-05-07T13:08:33;7.37;;;2.90;;
68449;SDS011;67758;39.572;2.652;2023-05-07T13:11:02;6.88;;;3.03;;
68449;SDS011;67758;39.572;2.652;2023-05-07T13:13:32;7.63;;;2.88;;
68449;SDS011;67758;39.572;2.652;2023-05-07T13:16:03;9.60;;;2.47;;
68449;SDS011;67758;39.572;2.652;2023-05-07T13:18:31;6.55;;;2.30;;
68449;SDS011;67758;39.572;2.652;2023-05-07T13:20:58;7.00;;;3.67;;
68449;SDS011;67758;39.572;2.652;2023-05-07T13:23:26;7.38;;;3.40;;
68449;SDS011;67758;39.572;2.652;2023-05-07T13:25:53;6.63;;;3.60;;
68449;SDS011;67758;39.572;2.652;2023-05-07T13:28:19;8.70;;;4.00;;
68449;SDS011;67758;39.572;2.652;2023-05-07T13:30:45;8.57;;;3.60;;
68449;SDS011;67758;39.572;2.652;2023-05-07T13:33:11;10.07;;;5.45;;
68449;SDS011;67758;39.572;2.652;2023-05-07T13:35:39;10.38;;;5.15;;
68449;SDS011;67758;39.572;2.652;2023-05-07T13:38:06;7.47;;;4.32;;
68449;SDS011;67758;39.572;2.652;2023-05-07T13:40:35;9.23;;;4.30;;
68449;SDS011;67758;39.572;2.652;2023-05-07T13:43:05;6.93;;;3.60;;
68449;SDS011;67758;39.572;2.652;2023-05-07T13:45:31;7.93;;;3.33;;
68449;SDS011;67758;39.572;2.652;2023-05-07T13:47:57;11.02;;;3.83;;
68449;SDS011;67758;39.572;2.652;2023-05-07T13:50:23;9.40;;;4.03;;
68449;SDS011;67758;39.572;2.652;2023-05-07T13:52:49;6.93;;;3.47;;
68449;SDS011;67758;39.572;2.652;2023-05-07T13:55:19;8.15;;;3.38;;
68449;SDS011;67758;39.572;2.652;2023-05-07T13:57:46;7.20;;;2.90;;
68449;SDS011;67758;39.572;2.652;2023-05-07T14:00:13;7.47;;;3.10;;
68449;SDS011;67758;39.572;2.652;2023-05-07T14:02:40;7.17;;;2.97;;
68449;SDS011;67758;39.572;2.652;2023-05-07T14:05:06;12.75;;;3.83;;
68449;SDS011;67758;39.572;2.652;2023-05-07T14:07:33;7.72;;;3.10;;
68449;SDS011;67758;39.572;2.652;2023-05-07T14:09:59;5.80;;;2.90;;
68449;SDS011;67758;39.572;2.652;2023-05-07T14:12:24;7.25;;;2.90;;
68449;SDS011;67758;39.572;2.652;2023-05-07T14:14:50;5.97;;;2.63;;
68449;SDS011;67758;39.572;2.652;2023-05-07T14:17:19;6.35;;;2.45;;
68449;SDS011;67758;39.572;2.652;2023-05-07T14:19:45;5.45;;;2.80;;
68449;SDS011;67758;39.572;2.652;2023-05-07T14:22:12;6.00;;;2.77;;
68449;SDS011;67758;39.572;2.652;2023-05-07T14:24:39;6.93;;;3.42;;
68449;SDS011;67758;39.572;2.652;2023-05-07T14:27:05;7.53;;;3.23;;
68449;SDS011;67758;39.572;2.652;2023-05-07T14:29:30;5.60;;;3.42;;
68449;SDS011;67758;39.572;2.652;2023-05-07T14:31:56;7.28;;;3.70;;
68449;SDS011;67758;39.572;2.652;2023-05-07T14:34:22;8.37;;;3.93;;
68449;SDS011;67758;39.572;2.652;2023-05-07T14:36:47;6.05;;;3.40;;
68449;SDS011;67758;39.572;2.652;2023-05-07T14:39:13;5.90;;;3.13;;
68449;SDS011;67758;39.572;2.652;2023-05-07T14:41:39;5.87;;;3.43;;
68449;SDS011;67758;39.572;2.652;2023-05-07T14:44:04;5.60;;;2.92;;
68449;SDS011;67758;39.572;2.652;2023-05-07T14:46:30;6.57;;;3.80;;
68449;SDS011;67758;39.572;2.652;2023-05-07T14:48:56;7.35;;;3.33;;
68449;SDS011;67758;39.572;2.652;2023-05-07T14:51:22;8.10;;;3.00;;
68449;SDS011;67758;39.572;2.652;2023-05-07T14:53:49;6.20;;;2.40;;
68449;SDS011;67758;39.572;2.652;2023-05-07T14:56:15;5.95;;;2.80;;
68449;SDS011;67758;39.572;2.652;2023-05-07T14:58:42;7.18;;;2.90;;
68449;SDS011;67758;39.572;2.652;2023-05-07T15:01:08;5.80;;;2.72;;
68449;SDS011;67758;39.572;2.652;2023-05-07T15:03:34;6.20;;;2.50;;
68449;SDS011;67758;39.572;2.652;2023-05-07T15:06:00;6.57;;;2.55;;
68449;SDS011;67758;39.572;2.652;2023-05-07T15:08:25;6.07;;;2.70;;
68449;SDS011;67758;39.572;2.652;2023-05-07T15:10:51;7.60;;;2.85;;
68449;SDS011;67758;39.572;2.652;2023-05-07T15:13:17;6.38;;;2.00;;
68449;SDS011;67758;39.572;2.652;2023-05-07T15:15:43;6.20;;;2.00;;
68449;SDS011;67758;39.572;2.652;2023-05-07T15:18:09;7.65;;;2.53;;
68449;SDS011;67758;39.572;2.652;2023-05-07T15:20:35;6.70;;;2.57;;
68449;SDS011;67758;39.572;2.652;2023-05-07T15:23:01;8.65;;;2.65;;
68449;SDS011;67758;39.572;2.652;2023-05-07T15:25:30;6.75;;;2.70;;